MDT,Max TemperatureF,Mean TemperatureF,Min TemperatureF,Max Dew PointF,MeanDew PointF,Min DewpointF,Max Humidity, Mean Humidity, Min Humidity, Max Sea Level PressureIn, Mean Sea Level PressureIn, Min Sea Level PressureIn, Max VisibilityMiles, Mean VisibilityMiles, Min VisibilityMiles, Max Wind SpeedMPH, Mean Wind SpeedMPH, Max Gust SpeedMPH,PrecipitationIn, CloudCover, Events, WindDirDegrees
2012-10-1,62,49,36,39,32,18,83,51,19,30.33,30.17,30.00,10,10,10,12,5,20,0.00,2,,289
2012-10-2,79,60,41,30,26,23,46,30,13,29.94,29.78,29.68,10,10,10,20,7,26,0.00,0,,23
2012-10-3,66,46,26,34,27,21,69,48,26,30.25,29.89,29.64,10,10,10,22,9,33,0.00,2,,344
2012-10-4,44,35,26,23,20,16,75,54,33,30.39,30.33,30.24,10,10,10,17,6,22,0.00,4,,42
2012-10-5,30,28,25,27,24,20,92,81,69,30.41,30.31,30.25,10,3,0,8,3,9,0.55,8,Fog-Snow,96
2012-10-6,32,26,20,25,20,14,96,77,58,30.43,30.32,30.24,10,7,0,16,5,23,0.04,6,Fog-Snow,270
2012-10-7,48,33,18,28,21,11,77,60,42,30.27,30.08,29.89,10,10,10,20,9,31,0.00,0,,276
2012-10-8,53,46,38,34,27,21,67,53,38,29.91,29.84,29.80,10,10,9,18,7,23,T,4,Rain,283
2012-10-9,39,33,26,36,27,21,89,71,52,30.19,30.02,29.86,10,8,2,21,6,29,0.04,6,Rain-Snow,310
2012-10-10,60,43,26,27,25,22,84,55,26,30.18,30.02,29.90,10,10,10,18,7,28,0.00,0,,253
2012-10-11,42,33,24,31,28,22,92,74,55,30.33,30.19,29.93,10,9,2,8,4,12,0.00,4,,67
2012-10-12,70,48,26,37,28,23,85,54,22,30.29,29.96,29.66,10,10,10,14,7,21,0.00,0,,245
2012-10-13,67,54,41,38,30,21,62,41,20,29.96,29.77,29.60,10,10,10,15,6,23,T,5,Rain,330
2012-10-14,59,48,36,34,30,27,79,55,30,30.08,30.03,29.97,10,10,10,26,9,39,0.00,0,,282
2012-10-15,68,53,38,34,26,20,50,34,18,29.96,29.80,29.70,10,10,10,13,6,18,0.00,1,,260
2012-10-16,64,52,39,45,35,24,89,62,34,29.73,29.52,29.31,10,10,2,25,9,44,0.15,3,Rain,276
2012-10-17,41,36,31,23,19,13,64,52,40,29.85,29.70,29.49,10,9,2,36,18,52,T,2,Rain-Snow,308
2012-10-18,45,36,26,17,8,-5,47,34,20,30.09,29.94,29.83,10,10,10,30,14,51,0.00,0,,306
2012-10-19,63,46,28,26,20,3,56,40,24,30.02,29.85,29.69,10,10,10,16,5,24,0.00,0,,259
2012-10-20,70,52,33,26,24,21,61,39,17,29.69,29.59,29.51,10,10,8,20,6,26,0.00,0,,270
2012-10-21,54,46,38,36,33,30,85,68,50,29.96,29.82,29.58,10,10,10,14,6,18,0.00,4,,39
2012-10-22,50,42,34,38,36,33,92,76,60,29.99,29.87,29.70,10,10,2,13,3,16,T,6,Rain,99
2012-10-23,56,46,35,39,34,28,100,73,46,29.85,29.70,29.59,10,10,8,24,8,31,0.04,4,Rain,253
2012-10-24,42,33,23,34,29,17,100,78,55,30.10,29.94,29.81,10,4,0,20,5,24,0.47,8,Fog-Rain-Snow,298
2012-10-25,35,25,14,25,20,11,96,72,47,30.39,30.22,30.10,10,9,1,13,3,17,0.00,5,,208
2012-10-26,32,22,12,18,16,10,92,73,53,30.49,30.34,30.13,10,10,10,16,5,20,0.00,2,,251
2012-10-27,40,29,18,19,16,8,91,60,29,30.20,30.15,30.09,10,10,10,12,3,17,0.00,4,,360
2012-10-28,48,35,21,30,24,16,84,65,45,30.14,30.05,29.96,10,10,10,16,4,23,0.00,3,,267
2012-10-29,60,46,31,35,29,27,85,58,31,30.06,30.00,29.95,10,10,10,9,3,13,0.00,2,,299
2012-10-30,61,47,33,36,33,30,89,63,37,30.09,30.02,29.96,10,10,10,13,3,16,0.00,1,,319
2012-10-31,64,48,32,31,29,27,89,58,27,30.08,30.04,30.01,10,10,10,18,5,26,0.00,0,,304